Ocean Spirit of Moray — MVXF5 — position and weather

sailwx.info

Track history (hours):
 
Tides and Currents Weather Stations Pressure Air Temp Water Temp Dewpoint Dewpoint Depression Visibility Wind Speed Wind Dir Waves Ship Positions

Ocean Spirit of Moray (United Kingdom)

Ship's website: http://www.gordonstoun.org.uk/

Last reported at 2019-Aug-20 03:42 UTC. Time now 2019-Aug-22 09:08 UTC.
Position N 58°39' W 002°39'.

Length 24 m; draft 3 m.

Type: Sailing vessel. MMSI: 232007590.

Date/timePositionNaut miles runAvg speedWind from/ knotsBaromVisibWave heightAir tempDewpointWater temp
2019-Aug-20 03:42N 58°39' W 002°39'  
2019-Aug-12 21:26N 77°07' E 010°53'4 9.1
2019-Aug-12 21:00N 77°10' E 011°01'5 9.0
2019-Aug-12 20:30N 77°14' E 011°10'4 8.7
2019-Aug-12 20:00N 77°18' E 011°18'4 8.0
2019-Aug-12 19:30N 77°22' E 011°25'4 8.6
2019-Aug-12 19:00N 77°26' E 011°32'4 8.6
2019-Aug-12 18:30N 77°30' E 011°40'4 8.7
2019-Aug-12 18:00N 77°34' E 011°47'4 8.8
2019-Aug-12 17:30N 77°38' E 011°56'4 8.9
2019-Aug-12 17:00N 77°42' E 012°06'4 8.6
2019-Aug-12 16:30N 77°46' E 012°13'4 8.1
2019-Aug-12 16:00N 77°49' E 012°22'4 8.1
2019-Aug-12 15:28N 77°53' E 012°32'4 8.7
2019-Aug-12 15:00N 77°56' E 012°42'4 8.5
2019-Aug-12 14:30N 78°00' E 012°52'4 7.9
2019-Aug-12 13:59N 78°03' E 013°05'3 6.7
2019-Aug-12 13:30N 78°05' E 013°17'3 6.6
2019-Aug-12 13:00N 78°07' E 013°30'3 6.8
2019-Aug-12 12:30N 78°09' E 013°44'2 4.3
2019-Aug-12 12:00N 78°10' E 013°54'3 5.0
2019-Aug-12 11:25N 78°10' E 014°08'4 6.3
2019-Aug-12 10:45N 78°12' E 014°27'2 7.5
2019-Aug-12 10:31N 78°12' E 014°35'4 7.4
2019-Aug-12 09:59N 78°14' E 014°53'4 7.0
2019-Aug-12 09:23N 78°15' E 015°12'3 6.9
2019-Aug-12 09:00N 78°16' E 015°25'3 5.5
2019-Aug-12 08:29N 78°14' E 015°36'0 0.2
2019-Aug-12 07:58N 78°14' E 015°36'0 0.0
2019-Aug-12 07:28N 78°14' E 015°36'0 0.0
2019-Aug-12 06:58N 78°14' E 015°36'0 0.0
2019-Aug-12 06:28N 78°14' E 015°36'0 0.0
2019-Aug-12 05:58N 78°14' E 015°36'0 0.0
2019-Aug-12 05:28N 78°14' E 015°36'0 0.0
2019-Aug-12 04:58N 78°14' E 015°36'0 0.0
2019-Aug-12 04:28N 78°14' E 015°36'0 0.0
2019-Aug-12 03:58N 78°14' E 015°36'0 0.0
2019-Aug-12 03:28N 78°14' E 015°36'0 0.0
2019-Aug-12 02:58N 78°14' E 015°36'0 0.0
2019-Aug-12 02:28N 78°14' E 015°36'0 0.0
2019-Aug-12 01:58N 78°14' E 015°36'0 0.0
2019-Aug-12 01:28N 78°14' E 015°36'0 0.0
2019-Aug-12 00:58N 78°14' E 015°36'0 0.0
2019-Aug-12 00:28N 78°14' E 015°36'0 0.0
2019-Aug-11 23:58N 78°14' E 015°36'0 0.0
2019-Aug-11 23:28N 78°14' E 015°36'0 0.0
2019-Aug-11 22:58N 78°14' E 015°36'0 0.0
2019-Aug-11 22:28N 78°14' E 015°36'0 0.0
2019-Aug-11 21:58N 78°14' E 015°36'0 0.0
2019-Aug-11 21:28N 78°14' E 015°36'0 0.0
2019-Aug-11 20:58N 78°14' E 015°36'0 0.0
2019-Aug-11 20:28N 78°14' E 015°36'0 0.0
2019-Aug-11 19:58N 78°14' E 015°36'0 0.0
2019-Aug-11 19:28N 78°14' E 015°36'0 0.0
2019-Aug-11 18:58N 78°14' E 015°36'0 0.0
2019-Aug-11 18:28N 78°14' E 015°36'0 0.0
2019-Aug-11 17:58N 78°14' E 015°36'0 0.0
2019-Aug-11 17:28N 78°14' E 015°36'0 0.0
2019-Aug-11 16:58N 78°14' E 015°36'0 0.0
2019-Aug-11 16:28N 78°14' E 015°36'0 0.0
2019-Aug-11 15:58N 78°14' E 015°36'0 0.0
2019-Aug-11 15:28N 78°14' E 015°36'0 0.0
2019-Aug-11 14:58N 78°14' E 015°36'0 0.0
2019-Aug-11 14:28N 78°14' E 015°36'0 0.0
2019-Aug-11 13:58N 78°14' E 015°36'0 0.0
2019-Aug-11 13:28N 78°14' E 015°36'0 0.0
2019-Aug-11 12:58N 78°14' E 015°36'0 0.0
2019-Aug-11 12:28N 78°14' E 015°36'0 0.0
2019-Aug-11 11:58N 78°14' E 015°36'0 0.0
2019-Aug-11 11:28N 78°14' E 015°36'0 0.0
2019-Aug-11 10:58N 78°14' E 015°36'0 0.0
2019-Aug-11 10:28N 78°14' E 015°36'0 0.0
2019-Aug-11 09:58N 78°14' E 015°36'0 0.0
2019-Aug-11 09:28N 78°14' E 015°36'0 0.0
2019-Aug-11 08:58N 78°14' E 015°36'0 0.0
2019-Aug-11 08:28N 78°14' E 015°36'0 0.6
2019-Aug-11 08:00N 78°14' E 015°37'0 0.0
2019-Aug-11 07:30N 78°14' E 015°37'0 0.6
2019-Aug-11 06:59N 78°14' E 015°35'0 0.0
2019-Aug-11 06:29N 78°14' E 015°35'0 0.0
2019-Aug-11 05:59N 78°14' E 015°35'0 0.0
2019-Aug-11 05:29N 78°14' E 015°35'0 0.0
2019-Aug-11 04:59N 78°14' E 015°35'0 0.0
2019-Aug-11 04:29N 78°14' E 015°35'0 0.0
2019-Aug-11 03:59N 78°14' E 015°35'0 0.0
2019-Aug-11 03:29N 78°14' E 015°35'0 0.0
2019-Aug-11 02:59N 78°14' E 015°35'0 0.0
2019-Aug-11 02:29N 78°14' E 015°35'0 0.0
2019-Aug-11 01:59N 78°14' E 015°35'0 0.0
2019-Aug-11 01:29N 78°14' E 015°35'0 0.0
2019-Aug-11 00:59N 78°14' E 015°35'0 0.0
2019-Aug-11 00:29N 78°14' E 015°35'0 0.0
2019-Aug-10 23:59N 78°14' E 015°35'0 0.0
2019-Aug-10 23:29N 78°14' E 015°35'0 0.0
2019-Aug-10 22:59N 78°14' E 015°35'0 0.0
2019-Aug-10 22:29N 78°14' E 015°35'0 0.0
2019-Aug-10 21:59N 78°14' E 015°35'0 0.0
2019-Aug-10 21:29N 78°14' E 015°35'0 0.0
2019-Aug-10 20:59N 78°14' E 015°35'0 0.0
2019-Aug-10 20:29N 78°14' E 015°35'0 0.0
2019-Aug-10 19:59N 78°14' E 015°35'0 0.0
2019-Aug-10 19:29N 78°14' E 015°35'0 0.0
2019-Aug-10 18:59N 78°14' E 015°35'0 0.0
2019-Aug-10 18:29N 78°14' E 015°35'0 0.0
2019-Aug-10 17:59N 78°14' E 015°35'0 0.0
2019-Aug-10 17:29N 78°14' E 015°35'0 0.0
2019-Aug-10 16:59N 78°14' E 015°35'0 0.0
2019-Aug-10 16:29N 78°14' E 015°35'0 0.0
2019-Aug-10 15:59N 78°14' E 015°35'0 0.0
2019-Aug-10 15:29N 78°14' E 015°35'0 0.0
2019-Aug-10 14:59N 78°14' E 015°35'0 0.0
2019-Aug-10 14:29N 78°14' E 015°35'0 0.0
2019-Aug-10 13:59N 78°14' E 015°35'0 0.7
2019-Aug-10 13:30N 78°14' E 015°37'0 0.5
2019-Aug-10 13:00N 78°14' E 015°37'3 6.5
2019-Aug-10 12:31N 78°16' E 015°24'4 7.3
2019-Aug-10 12:00N 78°15' E 015°06'4 7.0
2019-Aug-10 11:30N 78°15' E 014°49'3 6.7
2019-Aug-10 11:00N 78°14' E 014°33'2 4.0
2019-Aug-10 10:30N 78°13' E 014°24'3 5.4
2019-Aug-10 09:59N 78°13' E 014°11'1 2.3
2019-Aug-10 09:30N 78°13' E 014°06'1 2.6
2019-Aug-10 09:00N 78°14' E 013°60'3 5.8
2019-Aug-10 08:31N 78°17' E 013°59'2 3.4
2019-Aug-10 08:00N 78°18' E 013°55'2 4.5
2019-Aug-10 07:31N 78°16' E 014°01'0 0.1
2019-Aug-10 07:00N 78°16' E 014°02'0 0.0
2019-Aug-10 06:30N 78°16' E 014°02'0 0.0
2019-Aug-10 06:00N 78°16' E 014°02'0 0.0
2019-Aug-10 05:30N 78°16' E 014°02'0 0.0
2019-Aug-10 05:00N 78°16' E 014°02'0 0.0
2019-Aug-10 04:30N 78°16' E 014°02'0 0.0
2019-Aug-10 04:00N 78°16' E 014°02'  
Track history (hours):
 
Tides and Currents Weather Stations Pressure Air Temp Water Temp Dewpoint Dewpoint Depression Visibility Wind Speed Wind Dir Waves Ship Positions

Ocean Spirit of Moray (United Kingdom)

Ship's website: http://www.gordonstoun.org.uk/

Last reported at 2019-Aug-20 03:42 UTC. Time now 2019-Aug-22 09:08 UTC.
Position N 58°39' W 002°39'.

Length 24 m; draft 3 m.

Type: Sailing vessel. MMSI: 232007590.

Date/timePositionNaut miles runAvg speedWind from/ knotsBaromVisibWave heightAir tempDewpointWater temp
2019-Aug-20 03:42N 58°39' W 002°39'  
2019-Aug-12 21:26N 77°07' E 010°53'4 9.1
2019-Aug-12 21:00N 77°10' E 011°01'5 9.0
2019-Aug-12 20:30N 77°14' E 011°10'4 8.7
2019-Aug-12 20:00N 77°18' E 011°18'4 8.0
2019-Aug-12 19:30N 77°22' E 011°25'4 8.6
2019-Aug-12 19:00N 77°26' E 011°32'4 8.6
2019-Aug-12 18:30N 77°30' E 011°40'4 8.7
2019-Aug-12 18:00N 77°34' E 011°47'4 8.8
2019-Aug-12 17:30N 77°38' E 011°56'4 8.9
2019-Aug-12 17:00N 77°42' E 012°06'4 8.6
2019-Aug-12 16:30N 77°46' E 012°13'4 8.1
2019-Aug-12 16:00N 77°49' E 012°22'4 8.1
2019-Aug-12 15:28N 77°53' E 012°32'4 8.7
2019-Aug-12 15:00N 77°56' E 012°42'4 8.5
2019-Aug-12 14:30N 78°00' E 012°52'4 7.9
2019-Aug-12 13:59N 78°03' E 013°05'3 6.7
2019-Aug-12 13:30N 78°05' E 013°17'3 6.6
2019-Aug-12 13:00N 78°07' E 013°30'3 6.8
2019-Aug-12 12:30N 78°09' E 013°44'2 4.3
2019-Aug-12 12:00N 78°10' E 013°54'3 5.0
2019-Aug-12 11:25N 78°10' E 014°08'4 6.3
2019-Aug-12 10:45N 78°12' E 014°27'2 7.5
2019-Aug-12 10:31N 78°12' E 014°35'4 7.4
2019-Aug-12 09:59N 78°14' E 014°53'4 7.0
2019-Aug-12 09:23N 78°15' E 015°12'3 6.9
2019-Aug-12 09:00N 78°16' E 015°25'3 5.5
2019-Aug-12 08:29N 78°14' E 015°36'0 0.2
2019-Aug-12 07:58N 78°14' E 015°36'0 0.0
2019-Aug-12 07:28N 78°14' E 015°36'0 0.0
2019-Aug-12 06:58N 78°14' E 015°36'0 0.0
2019-Aug-12 06:28N 78°14' E 015°36'0 0.0
2019-Aug-12 05:58N 78°14' E 015°36'0 0.0
2019-Aug-12 05:28N 78°14' E 015°36'0 0.0
2019-Aug-12 04:58N 78°14' E 015°36'0 0.0
2019-Aug-12 04:28N 78°14' E 015°36'0 0.0
2019-Aug-12 03:58N 78°14' E 015°36'0 0.0
2019-Aug-12 03:28N 78°14' E 015°36'0 0.0
2019-Aug-12 02:58N 78°14' E 015°36'0 0.0
2019-Aug-12 02:28N 78°14' E 015°36'0 0.0
2019-Aug-12 01:58N 78°14' E 015°36'0 0.0
2019-Aug-12 01:28N 78°14' E 015°36'0 0.0
2019-Aug-12 00:58N 78°14' E 015°36'0 0.0
2019-Aug-12 00:28N 78°14' E 015°36'0 0.0
2019-Aug-11 23:58N 78°14' E 015°36'0 0.0
2019-Aug-11 23:28N 78°14' E 015°36'0 0.0
2019-Aug-11 22:58N 78°14' E 015°36'0 0.0
2019-Aug-11 22:28N 78°14' E 015°36'0 0.0
2019-Aug-11 21:58N 78°14' E 015°36'0 0.0
2019-Aug-11 21:28N 78°14' E 015°36'0 0.0
2019-Aug-11 20:58N 78°14' E 015°36'0 0.0
2019-Aug-11 20:28N 78°14' E 015°36'0 0.0
2019-Aug-11 19:58N 78°14' E 015°36'0 0.0
2019-Aug-11 19:28N 78°14' E 015°36'0 0.0
2019-Aug-11 18:58N 78°14' E 015°36'0 0.0
2019-Aug-11 18:28N 78°14' E 015°36'0 0.0
2019-Aug-11 17:58N 78°14' E 015°36'0 0.0
2019-Aug-11 17:28N 78°14' E 015°36'0 0.0
2019-Aug-11 16:58N 78°14' E 015°36'0 0.0
2019-Aug-11 16:28N 78°14' E 015°36'0 0.0
2019-Aug-11 15:58N 78°14' E 015°36'0 0.0
2019-Aug-11 15:28N 78°14' E 015°36'0 0.0
2019-Aug-11 14:58N 78°14' E 015°36'0 0.0
2019-Aug-11 14:28N 78°14' E 015°36'0 0.0
2019-Aug-11 13:58N 78°14' E 015°36'0 0.0
2019-Aug-11 13:28N 78°14' E 015°36'0 0.0
2019-Aug-11 12:58N 78°14' E 015°36'0 0.0
2019-Aug-11 12:28N 78°14' E 015°36'0 0.0
2019-Aug-11 11:58N 78°14' E 015°36'0 0.0
2019-Aug-11 11:28N 78°14' E 015°36'0 0.0
2019-Aug-11 10:58N 78°14' E 015°36'0 0.0
2019-Aug-11 10:28N 78°14' E 015°36'0 0.0
2019-Aug-11 09:58N 78°14' E 015°36'0 0.0
2019-Aug-11 09:28N 78°14' E 015°36'0 0.0
2019-Aug-11 08:58N 78°14' E 015°36'0 0.0
2019-Aug-11 08:28N 78°14' E 015°36'0 0.6
2019-Aug-11 08:00N 78°14' E 015°37'0 0.0
2019-Aug-11 07:30N 78°14' E 015°37'0 0.6
2019-Aug-11 06:59N 78°14' E 015°35'0 0.0
2019-Aug-11 06:29N 78°14' E 015°35'0 0.0
2019-Aug-11 05:59N 78°14' E 015°35'0 0.0
2019-Aug-11 05:29N 78°14' E 015°35'0 0.0
2019-Aug-11 04:59N 78°14' E 015°35'0 0.0
2019-Aug-11 04:29N 78°14' E 015°35'0 0.0
2019-Aug-11 03:59N 78°14' E 015°35'0 0.0
2019-Aug-11 03:29N 78°14' E 015°35'0 0.0
2019-Aug-11 02:59N 78°14' E 015°35'0 0.0
2019-Aug-11 02:29N 78°14' E 015°35'0 0.0
2019-Aug-11 01:59N 78°14' E 015°35'0 0.0
2019-Aug-11 01:29N 78°14' E 015°35'0 0.0
2019-Aug-11 00:59N 78°14' E 015°35'0 0.0
2019-Aug-11 00:29N 78°14' E 015°35'0 0.0
2019-Aug-10 23:59N 78°14' E 015°35'0 0.0
2019-Aug-10 23:29N 78°14' E 015°35'0 0.0
2019-Aug-10 22:59N 78°14' E 015°35'0 0.0
2019-Aug-10 22:29N 78°14' E 015°35'0 0.0
2019-Aug-10 21:59N 78°14' E 015°35'0 0.0
2019-Aug-10 21:29N 78°14' E 015°35'0 0.0
2019-Aug-10 20:59N 78°14' E 015°35'0 0.0
2019-Aug-10 20:29N 78°14' E 015°35'0 0.0
2019-Aug-10 19:59N 78°14' E 015°35'0 0.0
2019-Aug-10 19:29N 78°14' E 015°35'0 0.0
2019-Aug-10 18:59N 78°14' E 015°35'0 0.0
2019-Aug-10 18:29N 78°14' E 015°35'0 0.0
2019-Aug-10 17:59N 78°14' E 015°35'0 0.0
2019-Aug-10 17:29N 78°14' E 015°35'0 0.0
2019-Aug-10 16:59N 78°14' E 015°35'0 0.0
2019-Aug-10 16:29N 78°14' E 015°35'0 0.0
2019-Aug-10 15:59N 78°14' E 015°35'0 0.0
2019-Aug-10 15:29N 78°14' E 015°35'0 0.0
2019-Aug-10 14:59N 78°14' E 015°35'0 0.0
2019-Aug-10 14:29N 78°14' E 015°35'0 0.0
2019-Aug-10 13:59N 78°14' E 015°35'0 0.7
2019-Aug-10 13:30N 78°14' E 015°37'0 0.5
2019-Aug-10 13:00N 78°14' E 015°37'3 6.5
2019-Aug-10 12:31N 78°16' E 015°24'4 7.3
2019-Aug-10 12:00N 78°15' E 015°06'4 7.0
2019-Aug-10 11:30N 78°15' E 014°49'3 6.7
2019-Aug-10 11:00N 78°14' E 014°33'2 4.0
2019-Aug-10 10:30N 78°13' E 014°24'3 5.4
2019-Aug-10 09:59N 78°13' E 014°11'1 2.3
2019-Aug-10 09:30N 78°13' E 014°06'1 2.6
2019-Aug-10 09:00N 78°14' E 013°60'3 5.8
2019-Aug-10 08:31N 78°17' E 013°59'2 3.4
2019-Aug-10 08:00N 78°18' E 013°55'2 4.5
2019-Aug-10 07:31N 78°16' E 014°01'0 0.1
2019-Aug-10 07:00N 78°16' E 014°02'0 0.0
2019-Aug-10 06:30N 78°16' E 014°02'0 0.0
2019-Aug-10 06:00N 78°16' E 014°02'0 0.0
2019-Aug-10 05:30N 78°16' E 014°02'0 0.0
2019-Aug-10 05:00N 78°16' E 014°02'0 0.0
2019-Aug-10 04:30N 78°16' E 014°02'0 0.0
2019-Aug-10 04:00N 78°16' E 014°02'  

Dump ship's entire track history